Maersk Danang — A8PS5 — position and weather

sailwx.info

Track history (hours):
 
Tides and Currents Weather Stations Pressure Air Temp Water Temp Dewpoint Dewpoint Depression Visibility Wind Speed Wind Dir Waves Ship Positions

Maersk Danang

Last reported at 2014-Jul-19 04:17 UTC. Time now 2014-Jul-28 20:30 UTC.
Position N 36°19' E 014°57'.
Warning: this ship's position is 9 days out of date.

Length 294 m; draft 12.3 m.

Type: Ship (hazmat cat A). MMSI: 636091595.

Date/timePositionNaut miles runAvg speedWind from/ knotsBaromVisibWave heightAir tempDewpointWater temp
2014-Jul-19 04:17N 36°19' E 014°57'1418.8
2014-Jul-19 03:33N 36°24' E 014°41'1818.5
2014-Jul-19 02:34N 36°29' E 014°19'1818.3
2014-Jul-19 01:34N 36°36' E 013°58'1818.0
2014-Jul-19 00:34N 36°41' E 013°36'1818.3
2014-Jul-18 23:34N 36°46' E 013°14'1818.0
2014-Jul-18 22:34N 36°51' E 012°53'1818.2
2014-Jul-18 21:33N 36°57' E 012°31'3618.1
2014-Jul-18 19:33N 37°09' E 011°48'3917.7
2014-Jul-18 17:23N 37°24' E 011°04'1518.0
2014-Jul-18 16:33N 37°27' E 010°45'3918.4
2014-Jul-18 14:27N 37°33' E 009°57'3518.3
2014-Jul-18 12:33N 37°24' E 009°15'1917.9
2014-Jul-18 11:29N 37°19' E 008°52'9518.8
2014-Jul-18 06:26N 37°15' E 006°53'1516.3
2014-Jul-18 05:30N 37°15' E 006°34'1617.1
2014-Jul-18 04:33N 37°14' E 006°13'1717.5
2014-Jul-18 03:34N 37°12' E 005°52'1817.9
2014-Jul-18 02:33N 37°11' E 005°29'1818.4
2014-Jul-18 01:33N 37°10' E 005°06'1818.4
2014-Jul-18 00:33N 37°08' E 004°43'1818.4
2014-Jul-17 23:33N 37°06' E 004°20'1818.1
2014-Jul-17 22:33N 37°05' E 003°58'1817.9
2014-Jul-17 21:33N 37°02' E 003°35'1818.3
2014-Jul-17 20:33N 36°59' E 003°13'1818.4
2014-Jul-17 19:33N 36°57' E 002°50'1818.2
2014-Jul-17 18:33N 36°54' E 002°27'1818.4
2014-Jul-17 17:33N 36°52' E 002°04'1818.3
2014-Jul-17 16:33N 36°49' E 001°42'1918.0
2014-Jul-17 15:30N 36°46' E 001°18'2217.8
2014-Jul-17 14:15N 36°43' E 000°51'1818.1
2014-Jul-17 13:14N 36°41' E 000°28'1318.3
2014-Jul-17 12:31N 36°39' E 000°12'1718.1
2014-Jul-17 11:33N 36°36' W 000°10'2218.2
2014-Jul-17 10:21N 36°33' W 000°36'1517.8
2014-Jul-17 09:32N 36°31' W 000°55'2217.1
2014-Jul-17 08:15N 36°28' W 001°22'1316.8
2014-Jul-17 07:29N 36°26' W 001°37'3417.0
2014-Jul-17 05:28N 36°21' W 002°19'221 6.1
2014-Jul-15 17:25N 35°59' W 006°52'1516.2
2014-Jul-15 16:29N 36°02' W 007°10'1516.6
2014-Jul-15 15:34N 36°05' W 007°29'6816.8
2014-Jul-15 11:30N 36°17' W 008°52'3316.9
2014-Jul-15 09:33N 36°24' W 009°32'1716.8
2014-Jul-15 08:32N 36°27' W 009°53'1616.7
2014-Jul-15 07:33N 36°31' W 010°13'1916.6
2014-Jul-15 06:25N 36°36' W 010°36'1616.3
2014-Jul-15 05:28N 36°39' W 010°55'1516.6
2014-Jul-15 04:32N 36°44' W 011°13'1616.6
2014-Jul-15 03:33N 36°48' W 011°33'2316.9
2014-Jul-15 02:12N 36°55' W 011°60'1517.1
2014-Jul-15 01:19N 36°59' W 012°18'53616.7
2014-Jul-13 17:12N 38°54' W 023°22'1416.5
2014-Jul-13 16:22N 38°56' W 023°39'1416.6
2014-Jul-13 15:33N 38°58' W 023°56'1716.7
2014-Jul-13 14:33N 39°01' W 024°18'1716.7
2014-Jul-13 13:33N 39°03' W 024°39'1816.7
2014-Jul-13 12:29N 39°05' W 025°02'1516.3
2014-Jul-13 11:33N 39°08' W 025°21'1616.2
2014-Jul-13 10:34N 39°10' W 025°42'3416.3
2014-Jul-13 08:30N 39°14' W 026°25'1516.1
2014-Jul-13 07:34N 39°15' W 026°44'1616.2
2014-Jul-13 06:33N 39°18' W 027°05'1616.2
2014-Jul-13 05:33N 39°19' W 027°26'1616.4
2014-Jul-13 04:34N 39°21' W 027°47'1615.8
2014-Jul-13 03:33N 39°23' W 028°07'1616.2
2014-Jul-13 02:34N 39°25' W 028°28'1616.4
2014-Jul-13 01:33N 39°26' W 028°49'1616.3
2014-Jul-13 00:34N 39°28' W 029°10'1616.1
2014-Jul-12 23:33N 39°29' W 029°31'1616.2
2014-Jul-12 22:33N 39°30' W 029°52'1616.0
2014-Jul-12 21:33N 39°31' W 030°12'  
Track history (hours):
 
Tides and Currents Weather Stations Pressure Air Temp Water Temp Dewpoint Dewpoint Depression Visibility Wind Speed Wind Dir Waves Ship Positions

Maersk Danang

Last reported at 2014-Jul-19 04:17 UTC. Time now 2014-Jul-28 20:30 UTC.
Position N 36°19' E 014°57'.
Warning: this ship's position is 9 days out of date.

Length 294 m; draft 12.3 m.

Type: Ship (hazmat cat A). MMSI: 636091595.

Date/timePositionNaut miles runAvg speedWind from/ knotsBaromVisibWave heightAir tempDewpointWater temp
2014-Jul-19 04:17N 36°19' E 014°57'1418.8
2014-Jul-19 03:33N 36°24' E 014°41'1818.5
2014-Jul-19 02:34N 36°29' E 014°19'1818.3
2014-Jul-19 01:34N 36°36' E 013°58'1818.0
2014-Jul-19 00:34N 36°41' E 013°36'1818.3
2014-Jul-18 23:34N 36°46' E 013°14'1818.0
2014-Jul-18 22:34N 36°51' E 012°53'1818.2
2014-Jul-18 21:33N 36°57' E 012°31'3618.1
2014-Jul-18 19:33N 37°09' E 011°48'3917.7
2014-Jul-18 17:23N 37°24' E 011°04'1518.0
2014-Jul-18 16:33N 37°27' E 010°45'3918.4
2014-Jul-18 14:27N 37°33' E 009°57'3518.3
2014-Jul-18 12:33N 37°24' E 009°15'1917.9
2014-Jul-18 11:29N 37°19' E 008°52'9518.8
2014-Jul-18 06:26N 37°15' E 006°53'1516.3
2014-Jul-18 05:30N 37°15' E 006°34'1617.1
2014-Jul-18 04:33N 37°14' E 006°13'1717.5
2014-Jul-18 03:34N 37°12' E 005°52'1817.9
2014-Jul-18 02:33N 37°11' E 005°29'1818.4
2014-Jul-18 01:33N 37°10' E 005°06'1818.4
2014-Jul-18 00:33N 37°08' E 004°43'1818.4
2014-Jul-17 23:33N 37°06' E 004°20'1818.1
2014-Jul-17 22:33N 37°05' E 003°58'1817.9
2014-Jul-17 21:33N 37°02' E 003°35'1818.3
2014-Jul-17 20:33N 36°59' E 003°13'1818.4
2014-Jul-17 19:33N 36°57' E 002°50'1818.2
2014-Jul-17 18:33N 36°54' E 002°27'1818.4
2014-Jul-17 17:33N 36°52' E 002°04'1818.3
2014-Jul-17 16:33N 36°49' E 001°42'1918.0
2014-Jul-17 15:30N 36°46' E 001°18'2217.8
2014-Jul-17 14:15N 36°43' E 000°51'1818.1
2014-Jul-17 13:14N 36°41' E 000°28'1318.3
2014-Jul-17 12:31N 36°39' E 000°12'1718.1
2014-Jul-17 11:33N 36°36' W 000°10'2218.2
2014-Jul-17 10:21N 36°33' W 000°36'1517.8
2014-Jul-17 09:32N 36°31' W 000°55'2217.1
2014-Jul-17 08:15N 36°28' W 001°22'1316.8
2014-Jul-17 07:29N 36°26' W 001°37'3417.0
2014-Jul-17 05:28N 36°21' W 002°19'221 6.1
2014-Jul-15 17:25N 35°59' W 006°52'1516.2
2014-Jul-15 16:29N 36°02' W 007°10'1516.6
2014-Jul-15 15:34N 36°05' W 007°29'6816.8
2014-Jul-15 11:30N 36°17' W 008°52'3316.9
2014-Jul-15 09:33N 36°24' W 009°32'1716.8
2014-Jul-15 08:32N 36°27' W 009°53'1616.7
2014-Jul-15 07:33N 36°31' W 010°13'1916.6
2014-Jul-15 06:25N 36°36' W 010°36'1616.3
2014-Jul-15 05:28N 36°39' W 010°55'1516.6
2014-Jul-15 04:32N 36°44' W 011°13'1616.6
2014-Jul-15 03:33N 36°48' W 011°33'2316.9
2014-Jul-15 02:12N 36°55' W 011°60'1517.1
2014-Jul-15 01:19N 36°59' W 012°18'53616.7
2014-Jul-13 17:12N 38°54' W 023°22'1416.5
2014-Jul-13 16:22N 38°56' W 023°39'1416.6
2014-Jul-13 15:33N 38°58' W 023°56'1716.7
2014-Jul-13 14:33N 39°01' W 024°18'1716.7
2014-Jul-13 13:33N 39°03' W 024°39'1816.7
2014-Jul-13 12:29N 39°05' W 025°02'1516.3
2014-Jul-13 11:33N 39°08' W 025°21'1616.2
2014-Jul-13 10:34N 39°10' W 025°42'3416.3
2014-Jul-13 08:30N 39°14' W 026°25'1516.1
2014-Jul-13 07:34N 39°15' W 026°44'1616.2
2014-Jul-13 06:33N 39°18' W 027°05'1616.2
2014-Jul-13 05:33N 39°19' W 027°26'1616.4
2014-Jul-13 04:34N 39°21' W 027°47'1615.8
2014-Jul-13 03:33N 39°23' W 028°07'1616.2
2014-Jul-13 02:34N 39°25' W 028°28'1616.4
2014-Jul-13 01:33N 39°26' W 028°49'1616.3
2014-Jul-13 00:34N 39°28' W 029°10'1616.1
2014-Jul-12 23:33N 39°29' W 029°31'1616.2
2014-Jul-12 22:33N 39°30' W 029°52'1616.0
2014-Jul-12 21:33N 39°31' W 030°12'  

Dump ship's entire track history